sensor_id;sensor_type;location;lat;lon;timestamp;pressure;altitude;pressure_sealevel;temperature;humidity
7662;BME280;30314;48.184;11.510;2022-09-17T00:01:27;95320.88;;;8.16;100.00
7662;BME280;30314;48.184;11.510;2022-09-17T00:03:58;95403.69;;;8.63;100.00
7662;BME280;30314;48.184;11.510;2022-09-17T00:06:30;95338.84;;;8.28;100.00
7662;BME280;30314;48.184;11.510;2022-09-17T00:08:58;95408.28;;;8.71;100.00
7662;BME280;30314;48.184;11.510;2022-09-17T00:11:28;95439.22;;;8.98;100.00
7662;BME280;30314;48.184;11.510;2022-09-17T00:13:57;95414.69;;;8.98;100.00
7662;BME280;30314;48.184;11.510;2022-09-17T00:16:29;95436.22;;;9.05;100.00
7662;BME280;30314;48.184;11.510;2022-09-17T00:18:58;95438.53;;;9.07;100.00
7662;BME280;30314;48.184;11.510;2022-09-17T00:21:26;95413.31;;;8.86;100.00
7662;BME280;30314;48.184;11.510;2022-09-17T00:23:56;95418.09;;;8.84;100.00
7662;BME280;30314;48.184;11.510;2022-09-17T00:26:24;95330.97;;;8.28;100.00
7662;BME280;30314;48.184;11.510;2022-09-17T00:28:53;95427.50;;;9.05;100.00
7662;BME280;30314;48.184;11.510;2022-09-17T00:31:22;95429.38;;;9.04;100.00
7662;BME280;30314;48.184;11.510;2022-09-17T00:33:52;95265.47;;;7.88;100.00
7662;BME280;30314;48.184;11.510;2022-09-17T00:36:20;95423.50;;;9.07;100.00
7662;BME280;30314;48.184;11.510;2022-09-17T00:38:49;95344.38;;;8.46;100.00
7662;BME280;30314;48.184;11.510;2022-09-17T00:41:17;95365.41;;;8.51;100.00
7662;BME280;30314;48.184;11.510;2022-09-17T00:43:48;95445.94;;;8.91;100.00
7662;BME280;30314;48.184;11.510;2022-09-17T00:46:28;95441.81;;;8.84;100.00
7662;BME280;30314;48.184;11.510;2022-09-17T00:49:00;95435.06;;;8.78;100.00
7662;BME280;30314;48.184;11.510;2022-09-17T00:51:33;95448.16;;;8.83;100.00
7662;BME280;30314;48.184;11.510;2022-09-17T00:54:05;95464.06;;;8.78;100.00
7662;BME280;30314;48.184;11.510;2022-09-17T00:56:35;95415.88;;;8.58;100.00
7662;BME280;30314;48.184;11.510;2022-09-17T00:59:06;95427.47;;;8.57;100.00
7662;BME280;30314;48.184;11.510;2022-09-17T01:01:34;95451.16;;;8.77;100.00
7662;BME280;30314;48.184;11.510;2022-09-17T01:04:04;95412.94;;;8.41;100.00
7662;BME280;30314;48.184;11.510;2022-09-17T01:06:36;95383.78;;;8.18;100.00
7662;BME280;30314;48.184;11.510;2022-09-17T01:09:23;95436.88;;;8.64;100.00
7662;BME280;30314;48.184;11.510;2022-09-17T01:12:06;95433.03;;;8.56;100.00
7662;BME280;30314;48.184;11.510;2022-09-17T01:14:51;95418.28;;;8.36;100.00
7662;BME280;30314;48.184;11.510;2022-09-17T01:17:28;95441.97;;;8.74;100.00
7662;BME280;30314;48.184;11.510;2022-09-17T01:20:25;95285.50;;;7.70;100.00
7662;BME280;30314;48.184;11.510;2022-09-17T01:23:18;95379.84;;;8.15;100.00
7662;BME280;30314;48.184;11.510;2022-09-17T01:25:59;95433.66;;;8.48;100.00
7662;BME280;30314;48.184;11.510;2022-09-17T01:28:40;95438.88;;;8.53;100.00
7662;BME280;30314;48.184;11.510;2022-09-17T01:31:33;95447.00;;;8.56;100.00
7662;BME280;30314;48.184;11.510;2022-09-17T01:34:12;95344.50;;;7.83;100.00
7662;BME280;30314;48.184;11.510;2022-09-17T01:36:55;95423.63;;;8.30;100.00
7662;BME280;30314;48.184;11.510;2022-09-17T01:39:42;95449.03;;;8.59;100.00
7662;BME280;30314;48.184;11.510;2022-09-17T01:42:18;95431.09;;;8.42;100.00
7662;BME280;30314;48.184;11.510;2022-09-17T01:44:54;95379.84;;;8.15;100.00
7662;BME280;30314;48.184;11.510;2022-09-17T01:47:29;95462.44;;;8.63;100.00
7662;BME280;30314;48.184;11.510;2022-09-17T01:50:01;95439.59;;;8.58;100.00
7662;BME280;30314;48.184;11.510;2022-09-17T01:52:31;95255.13;;;7.40;100.00
7662;BME280;30314;48.184;11.510;2022-09-17T01:55:03;95328.63;;;7.69;100.00
7662;BME280;30314;48.184;11.510;2022-09-17T01:57:35;95334.41;;;7.71;100.00
7662;BME280;30314;48.184;11.510;2022-09-17T02:00:09;95409.66;;;8.49;100.00
7662;BME280;30314;48.184;11.510;2022-09-17T02:02:41;95414.50;;;8.42;100.00
7662;BME280;30314;48.184;11.510;2022-09-17T02:05:15;95319.66;;;7.89;100.00
7662;BME280;30314;48.184;11.510;2022-09-17T02:07:51;95457.78;;;8.74;100.00
7662;BME280;30314;48.184;11.510;2022-09-17T02:10:25;95433.66;;;8.48;100.00
7662;BME280;30314;48.184;11.510;2022-09-17T02:12:58;95422.06;;;8.29;100.00
7662;BME280;30314;48.184;11.510;2022-09-17T02:15:31;95347.41;;;7.82;100.00
7662;BME280;30314;48.184;11.510;2022-09-17T02:18:06;95457.28;;;8.72;100.00
7662;BME280;30314;48.184;11.510;2022-09-17T02:20:41;95346.69;;;7.95;100.00
7662;BME280;30314;48.184;11.510;2022-09-17T02:23:13;95449.38;;;8.72;100.00
7662;BME280;30314;48.184;11.510;2022-09-17T02:25:46;95322.75;;;7.78;100.00
7662;BME280;30314;48.184;11.510;2022-09-17T02:28:19;95396.31;;;8.26;100.00
7662;BME280;30314;48.184;11.510;2022-09-17T02:30:50;95430.69;;;8.54;100.00
7662;BME280;30314;48.184;11.510;2022-09-17T02:33:20;95303.56;;;7.77;100.00
7662;BME280;30314;48.184;11.510;2022-09-17T02:35:49;95432.59;;;8.68;100.00
7662;BME280;30314;48.184;11.510;2022-09-17T02:38:21;95433.19;;;8.65;100.00
7662;BME280;30314;48.184;11.510;2022-09-17T02:40:53;95323.81;;;7.96;100.00
7662;BME280;30314;48.184;11.510;2022-09-17T02:43:30;95413.16;;;8.64;100.00
7662;BME280;30314;48.184;11.510;2022-09-17T02:46:17;95382.69;;;8.38;100.00
7662;BME280;30314;48.184;11.510;2022-09-17T02:49:12;95373.00;;;8.33;100.00
7662;BME280;30314;48.184;11.510;2022-09-17T02:51:47;95382.69;;;8.38;100.00
7662;BME280;30314;48.184;11.510;2022-09-17T02:54:24;95399.41;;;8.48;100.00
7662;BME280;30314;48.184;11.510;2022-09-17T02:57:04;95343.03;;;7.96;100.00
7662;BME280;30314;48.184;11.510;2022-09-17T02:59:37;95403.00;;;8.57;100.00
7662;BME280;30314;48.184;11.510;2022-09-17T03:02:17;95402.03;;;8.48;100.00
7662;BME280;30314;48.184;11.510;2022-09-17T03:04:48;95352.53;;;8.11;100.00
7662;BME280;30314;48.184;11.510;2022-09-17T03:07:18;95397.06;;;8.46;100.00
7662;BME280;30314;48.184;11.510;2022-09-17T03:09:46;95318.31;;;7.92;100.00
7662;BME280;30314;48.184;11.510;2022-09-17T03:12:14;95379.78;;;8.40;100.00
7662;BME280;30314;48.184;11.510;2022-09-17T03:14:42;95361.41;;;8.35;100.00
7662;BME280;30314;48.184;11.510;2022-09-17T03:17:11;95397.28;;;8.30;100.00
7662;BME280;30314;48.184;11.510;2022-09-17T03:19:40;95384.41;;;8.29;100.00
7662;BME280;30314;48.184;11.510;2022-09-17T03:22:09;95366.00;;;8.10;100.00
7662;BME280;30314;48.184;11.510;2022-09-17T03:24:37;95399.44;;;8.09;100.00
7662;BME280;30314;48.184;11.510;2022-09-17T03:27:05;95393.69;;;8.07;100.00
7662;BME280;30314;48.184;11.510;2022-09-17T03:29:33;95331.06;;;7.46;100.00
7662;BME280;30314;48.184;11.510;2022-09-17T03:32:01;95397.59;;;8.10;100.00
7662;BME280;30314;48.184;11.510;2022-09-17T03:34:29;95394.31;;;7.99;100.00
7662;BME280;30314;48.184;11.510;2022-09-17T03:36:56;95394.44;;;8.08;100.00
7662;BME280;30314;48.184;11.510;2022-09-17T03:39:25;95398.50;;;8.00;100.00
7662;BME280;30314;48.184;11.510;2022-09-17T03:41:53;95406.97;;;7.97;100.00
7662;BME280;30314;48.184;11.510;2022-09-17T03:44:21;95403.50;;;8.01;100.00
7662;BME280;30314;48.184;11.510;2022-09-17T03:46:49;95405.75;;;7.89;100.00
7662;BME280;30314;48.184;11.510;2022-09-17T03:49:17;95408.03;;;7.76;100.00
7662;BME280;30314;48.184;11.510;2022-09-17T03:51:44;95331.59;;;7.24;100.00
7662;BME280;30314;48.184;11.510;2022-09-17T03:54:12;95398.75;;;7.60;100.00
7662;BME280;30314;48.184;11.510;2022-09-17T03:56:41;95406.09;;;7.63;100.00
7662;BME280;30314;48.184;11.510;2022-09-17T03:59:09;95392.47;;;7.56;100.00
7662;BME280;30314;48.184;11.510;2022-09-17T04:01:37;95390.19;;;7.49;100.00
7662;BME280;30314;48.184;11.510;2022-09-17T04:04:05;95396.31;;;7.44;100.00
7662;BME280;30314;48.184;11.510;2022-09-17T04:06:33;95352.38;;;6.96;100.00
7662;BME280;30314;48.184;11.510;2022-09-17T04:09:01;95360.81;;;6.93;100.00
7662;BME280;30314;48.184;11.510;2022-09-17T04:11:30;95309.56;;;6.71;100.00
7662;BME280;30314;48.184;11.510;2022-09-17T04:13:59;95397.03;;;7.26;100.00
7662;BME280;30314;48.184;11.510;2022-09-17T04:16:27;95330.78;;;6.75;100.00
7662;BME280;30314;48.184;11.510;2022-09-17T04:18:55;95400.78;;;7.19;100.00
7662;BME280;30314;48.184;11.510;2022-09-17T04:21:22;95344.22;;;6.98;100.00
7662;BME280;30314;48.184;11.510;2022-09-17T04:23:50;95383.94;;;7.21;100.00
7662;BME280;30314;48.184;11.510;2022-09-17T04:26:18;95357.38;;;6.98;100.00
7662;BME280;30314;48.184;11.510;2022-09-17T04:28:45;95321.78;;;6.81;100.00
7662;BME280;30314;48.184;11.510;2022-09-17T04:31:15;95279.03;;;6.75;100.00
7662;BME280;30314;48.184;11.510;2022-09-17T04:33:42;95398.16;;;7.44;100.00
7662;BME280;30314;48.184;11.510;2022-09-17T04:36:10;95308.56;;;6.91;100.00
7662;BME280;30314;48.184;11.510;2022-09-17T04:38:38;95400.16;;;7.52;100.00
7662;BME280;30314;48.184;11.510;2022-09-17T04:41:06;95398.81;;;7.55;100.00
7662;BME280;30314;48.184;11.510;2022-09-17T04:43:34;95391.97;;;7.54;100.00
7662;BME280;30314;48.184;11.510;2022-09-17T04:46:02;95362.56;;;7.27;100.00
7662;BME280;30314;48.184;11.510;2022-09-17T04:48:31;95389.19;;;7.45;100.00
7662;BME280;30314;48.184;11.510;2022-09-17T04:50:59;95395.53;;;7.44;100.00
7662;BME280;30314;48.184;11.510;2022-09-17T04:53:27;95406.91;;;7.58;100.00
7662;BME280;30314;48.184;11.510;2022-09-17T04:55:56;95419.31;;;7.58;100.00
7662;BME280;30314;48.184;11.510;2022-09-17T04:58:24;95430.50;;;7.44;100.00
7662;BME280;30314;48.184;11.510;2022-09-17T05:00:51;95385.69;;;7.06;100.00
7662;BME280;30314;48.184;11.510;2022-09-17T05:03:19;95456.00;;;7.44;100.00
7662;BME280;30314;48.184;11.510;2022-09-17T05:05:48;95477.53;;;7.51;100.00
7662;BME280;30314;48.184;11.510;2022-09-17T05:08:16;95490.88;;;7.55;100.00
7662;BME280;30314;48.184;11.510;2022-09-17T05:10:43;95506.63;;;7.60;100.00
7662;BME280;30314;48.184;11.510;2022-09-17T05:13:11;95513.91;;;7.68;100.00
7662;BME280;30314;48.184;11.510;2022-09-17T05:15:39;95517.75;;;7.76;100.00
7662;BME280;30314;48.184;11.510;2022-09-17T05:18:07;95515.13;;;7.76;100.00
7662;BME280;30314;48.184;11.510;2022-09-17T05:20:34;95506.56;;;7.65;100.00
7662;BME280;30314;48.184;11.510;2022-09-17T05:23:03;95520.53;;;7.66;100.00
7662;BME280;30314;48.184;11.510;2022-09-17T05:25:31;95479.19;;;7.42;100.00
7662;BME280;30314;48.184;11.510;2022-09-17T05:27:59;95534.28;;;7.82;100.00
7662;BME280;30314;48.184;11.510;2022-09-17T05:30:27;95540.06;;;7.84;100.00
7662;BME280;30314;48.184;11.510;2022-09-17T05:32:59;95540.28;;;7.87;100.00
7662;BME280;30314;48.184;11.510;2022-09-17T05:35:28;95549.19;;;7.92;100.00
7662;BME280;30314;48.184;11.510;2022-09-17T05:37:58;95523.50;;;7.54;100.00
7662;BME280;30314;48.184;11.510;2022-09-17T05:40:28;95561.22;;;7.73;100.00
7662;BME280;30314;48.184;11.510;2022-09-17T05:43:00;95531.97;;;7.75;100.00
7662;BME280;30314;48.184;11.510;2022-09-17T05:45:28;95567.31;;;7.93;100.00
7662;BME280;30314;48.184;11.510;2022-09-17T05:47:57;95552.53;;;7.73;100.00
7662;BME280;30314;48.184;11.510;2022-09-17T05:50:26;95568.34;;;7.97;100.00
7662;BME280;30314;48.184;11.510;2022-09-17T05:52:55;95573.97;;;7.90;100.00
7662;BME280;30314;48.184;11.510;2022-09-17T05:55:23;95578.97;;;7.87;100.00
7662;BME280;30314;48.184;11.510;2022-09-17T05:57:52;95574.81;;;7.81;100.00
7662;BME280;30314;48.184;11.510;2022-09-17T06:00:20;95546.00;;;7.70;100.00
7662;BME280;30314;48.184;11.510;2022-09-17T06:02:53;95576.34;;;7.87;100.00
7662;BME280;30314;48.184;11.510;2022-09-17T06:05:21;95576.34;;;7.87;100.00
7662;BME280;30314;48.184;11.510;2022-09-17T06:07:49;95577.41;;;7.86;100.00
7662;BME280;30314;48.184;11.510;2022-09-17T06:10:17;95571.75;;;7.98;100.00
7662;BME280;30314;48.184;11.510;2022-09-17T06:12:45;95587.28;;;7.99;100.00
7662;BME280;30314;48.184;11.510;2022-09-17T06:15:14;95566.13;;;8.10;100.00
7662;BME280;30314;48.184;11.510;2022-09-17T06:17:42;95565.59;;;8.08;100.00
7662;BME280;30314;48.184;11.510;2022-09-17T06:20:09;95563.47;;;8.10;100.00
7662;BME280;30314;48.184;11.510;2022-09-17T06:22:37;95558.50;;;8.08;100.00
7662;BME280;30314;48.184;11.510;2022-09-17T06:25:05;95563.69;;;8.13;100.00
7662;BME280;30314;48.184;11.510;2022-09-17T06:27:33;95563.41;;;8.15;100.00
7662;BME280;30314;48.184;11.510;2022-09-17T06:30:02;95542.56;;;7.94;100.00
7662;BME280;30314;48.184;11.510;2022-09-17T06:32:32;95564.34;;;8.00;100.00
7662;BME280;30314;48.184;11.510;2022-09-17T06:34:59;95529.81;;;7.82;100.00
7662;BME280;30314;48.184;11.510;2022-09-17T06:37:29;95555.69;;;7.99;100.00
7662;BME280;30314;48.184;11.510;2022-09-17T06:39:58;95552.22;;;8.04;100.00
7662;BME280;30314;48.184;11.510;2022-09-17T06:42:26;95544.59;;;8.02;100.00
7662;BME280;30314;48.184;11.510;2022-09-17T06:44:55;95555.00;;;8.13;100.00
7662;BME280;30314;48.184;11.510;2022-09-17T06:47:27;95564.44;;;7.95;100.00
7662;BME280;30314;48.184;11.510;2022-09-17T06:49:56;95550.53;;;7.89;100.00
7662;BME280;30314;48.184;11.510;2022-09-17T06:52:25;95552.56;;;7.97;100.00
7662;BME280;30314;48.184;11.510;2022-09-17T06:54:52;95568.28;;;8.02;100.00
7662;BME280;30314;48.184;11.510;2022-09-17T06:57:20;95558.75;;;8.07;100.00
7662;BME280;30314;48.184;11.510;2022-09-17T06:59:48;95567.78;;;8.25;100.00
7662;BME280;30314;48.184;11.510;2022-09-17T07:02:17;95572.78;;;8.26;100.00
7662;BME280;30314;48.184;11.510;2022-09-17T07:04:45;95525.94;;;7.99;100.00
7662;BME280;30314;48.184;11.510;2022-09-17T07:07:14;95564.09;;;8.45;100.00
7662;BME280;30314;48.184;11.510;2022-09-17T07:09:41;95544.00;;;8.54;100.00
7662;BME280;30314;48.184;11.510;2022-09-17T07:12:09;95544.56;;;8.51;100.00
7662;BME280;30314;48.184;11.510;2022-09-17T07:14:37;95449.59;;;8.18;100.00
7662;BME280;30314;48.184;11.510;2022-09-17T07:17:05;95544.72;;;8.79;100.00
7662;BME280;30314;48.184;11.510;2022-09-17T07:19:32;95547.47;;;8.88;100.00
7662;BME280;30314;48.184;11.510;2022-09-17T07:22:00;95553.50;;;9.08;100.00
7662;BME280;30314;48.184;11.510;2022-09-17T07:24:30;95556.34;;;9.11;100.00
7662;BME280;30314;48.184;11.510;2022-09-17T07:26:58;95558.25;;;9.25;100.00
7662;BME280;30314;48.184;11.510;2022-09-17T07:29:27;95548.56;;;9.20;100.00
7662;BME280;30314;48.184;11.510;2022-09-17T07:31:54;95557.50;;;9.71;100.00
7662;BME280;30314;48.184;11.510;2022-09-17T07:34:24;95551.44;;;10.13;100.00
7662;BME280;30314;48.184;11.510;2022-09-17T07:36:53;95550.63;;;10.40;100.00
7662;BME280;30314;48.184;11.510;2022-09-17T07:39:21;95540.66;;;10.37;100.00
7662;BME280;30314;48.184;11.510;2022-09-17T07:41:50;95526.19;;;9.79;100.00
7662;BME280;30314;48.184;11.510;2022-09-17T07:44:18;95546.16;;;10.13;100.00
7662;BME280;30314;48.184;11.510;2022-09-17T07:46:47;95491.06;;;10.20;100.00
7662;BME280;30314;48.184;11.510;2022-09-17T07:49:15;95491.28;;;10.61;100.00
7662;BME280;30314;48.184;11.510;2022-09-17T07:51:43;95473.78;;;10.51;100.00
7662;BME280;30314;48.184;11.510;2022-09-17T07:54:11;95457.59;;;10.29;100.00
7662;BME280;30314;48.184;11.510;2022-09-17T07:56:39;95527.91;;;10.39;100.00
7662;BME280;30314;48.184;11.510;2022-09-17T07:59:09;95534.63;;;10.09;100.00
7662;BME280;30314;48.184;11.510;2022-09-17T08:01:37;95536.69;;;10.12;100.00
7662;BME280;30314;48.184;11.510;2022-09-17T08:04:05;95521.31;;;9.86;100.00
7662;BME280;30314;48.184;11.510;2022-09-17T08:06:36;95544.22;;;9.91;100.00
7662;BME280;30314;48.184;11.510;2022-09-17T08:09:06;95532.28;;;9.79;100.00
7662;BME280;30314;48.184;11.510;2022-09-17T08:11:35;95543.03;;;10.11;100.00
7662;BME280;30314;48.184;11.510;2022-09-17T08:14:22;95556.53;;;10.23;100.00
7662;BME280;30314;48.184;11.510;2022-09-17T08:16:54;95549.66;;;9.94;100.00
7662;BME280;30314;48.184;11.510;2022-09-17T08:19:22;95559.53;;;9.88;100.00
7662;BME280;30314;48.184;11.510;2022-09-17T08:21:50;95556.81;;;9.80;100.00
7662;BME280;30314;48.184;11.510;2022-09-17T08:24:18;95554.94;;;9.94;100.00
7662;BME280;30314;48.184;11.510;2022-09-17T08:26:46;95456.38;;;9.29;100.00
7662;BME280;30314;48.184;11.510;2022-09-17T08:29:14;95517.78;;;9.63;100.00
7662;BME280;30314;48.184;11.510;2022-09-17T08:31:43;95521.88;;;9.55;100.00
7662;BME280;30314;48.184;11.510;2022-09-17T08:34:11;95563.38;;;9.82;100.00
7662;BME280;30314;48.184;11.510;2022-09-17T08:36:39;95567.84;;;9.68;100.00
7662;BME280;30314;48.184;11.510;2022-09-17T08:39:07;95556.31;;;9.64;100.00
7662;BME280;30314;48.184;11.510;2022-09-17T08:41:48;95565.97;;;9.54;100.00
7662;BME280;30314;48.184;11.510;2022-09-17T08:44:23;95581.09;;;9.49;100.00
7662;BME280;30314;48.184;11.510;2022-09-17T08:46:57;95563.25;;;9.26;100.00
7662;BME280;30314;48.184;11.510;2022-09-17T08:49:32;95582.44;;;9.32;100.00
7662;BME280;30314;48.184;11.510;2022-09-17T08:52:13;95600.19;;;9.26;100.00
7662;BME280;30314;48.184;11.510;2022-09-17T08:54:48;95599.88;;;9.28;100.00
7662;BME280;30314;48.184;11.510;2022-09-17T08:57:25;95596.84;;;9.21;100.00
7662;BME280;30314;48.184;11.510;2022-09-17T09:00:00;95594.69;;;9.23;100.00
7662;BME280;30314;48.184;11.510;2022-09-17T09:02:50;95602.97;;;9.16;100.00
7662;BME280;30314;48.184;11.510;2022-09-17T09:05:26;95605.19;;;9.09;100.00
7662;BME280;30314;48.184;11.510;2022-09-17T09:08:03;95606.81;;;9.24;100.00
7662;BME280;30314;48.184;11.510;2022-09-17T09:10:36;95606.22;;;9.27;100.00
7662;BME280;30314;48.184;11.510;2022-09-17T09:13:11;95618.78;;;9.35;100.00
7662;BME280;30314;48.184;11.510;2022-09-17T09:15:44;95610.88;;;9.35;100.00
7662;BME280;30314;48.184;11.510;2022-09-17T09:18:17;95610.78;;;9.40;100.00
7662;BME280;30314;48.184;11.510;2022-09-17T09:20:49;95616.06;;;9.40;100.00
7662;BME280;30314;48.184;11.510;2022-09-17T09:23:20;95614.50;;;9.39;100.00
7662;BME280;30314;48.184;11.510;2022-09-17T09:25:59;95598.50;;;9.16;100.00
7662;BME280;30314;48.184;11.510;2022-09-17T09:28:50;95583.94;;;9.19;100.00
7662;BME280;30314;48.184;11.510;2022-09-17T09:31:45;95607.69;;;9.52;100.00
7662;BME280;30314;48.184;11.510;2022-09-17T09:34:16;95609.31;;;9.34;100.00
7662;BME280;30314;48.184;11.510;2022-09-17T09:36:44;95623.69;;;9.42;100.00
7662;BME280;30314;48.184;11.510;2022-09-17T09:39:16;95618.47;;;9.56;100.00
7662;BME280;30314;48.184;11.510;2022-09-17T09:41:49;95626.78;;;9.63;100.00
7662;BME280;30314;48.184;11.510;2022-09-17T09:44:19;95628.34;;;9.64;100.00
7662;BME280;30314;48.184;11.510;2022-09-17T09:47:04;95627.44;;;9.55;100.00
7662;BME280;30314;48.184;11.510;2022-09-17T09:49:52;95622.00;;;9.65;100.00
7662;BME280;30314;48.184;11.510;2022-09-17T09:52:35;95619.34;;;9.65;100.00
7662;BME280;30314;48.184;11.510;2022-09-17T09:55:26;95630.59;;;9.57;100.00
7662;BME280;30314;48.184;11.510;2022-09-17T09:58:03;95630.75;;;9.47;100.00
7662;BME280;30314;48.184;11.510;2022-09-17T10:00:37;95631.25;;;9.49;100.00
7662;BME280;30314;48.184;11.510;2022-09-17T10:03:12;95621.00;;;9.28;100.00
7662;BME280;30314;48.184;11.510;2022-09-17T10:05:52;95637.13;;;9.26;100.00
7662;BME280;30314;48.184;11.510;2022-09-17T10:08:21;95642.19;;;9.23;100.00
7662;BME280;30314;48.184;11.510;2022-09-17T10:10:58;95642.31;;;9.12;100.00
7662;BME280;30314;48.184;11.510;2022-09-17T10:13:28;95641.47;;;9.17;100.00
7662;BME280;30314;48.184;11.510;2022-09-17T10:16:14;95634.00;;;9.05;100.00
7662;BME280;30314;48.184;11.510;2022-09-17T10:18:43;95660.41;;;9.00;100.00
7662;BME280;30314;48.184;11.510;2022-09-17T10:21:20;95644.53;;;9.05;100.00
7662;BME280;30314;48.184;11.510;2022-09-17T10:23:49;95649.88;;;9.00;100.00
7662;BME280;30314;48.184;11.510;2022-09-17T10:26:25;95648.78;;;9.01;100.00
7662;BME280;30314;48.184;11.510;2022-09-17T10:28:54;95652.44;;;9.05;100.00
7662;BME280;30314;48.184;11.510;2022-09-17T10:31:23;95640.25;;;9.09;100.00
7662;BME280;30314;48.184;11.510;2022-09-17T10:33:55;95635.78;;;8.91;100.00
7662;BME280;30314;48.184;11.510;2022-09-17T10:36:40;95637.13;;;8.88;100.00
7662;BME280;30314;48.184;11.510;2022-09-17T10:39:31;95628.00;;;8.99;100.00
7662;BME280;30314;48.184;11.510;2022-09-17T10:42:01;95630.69;;;9.13;100.00
7662;BME280;30314;48.184;11.510;2022-09-17T10:44:30;95634.72;;;9.11;100.00
7662;BME280;30314;48.184;11.510;2022-09-17T10:47:04;95636.28;;;8.93;100.00
7662;BME280;30314;48.184;11.510;2022-09-17T10:49:39;95631.97;;;8.97;100.00
7662;BME280;30314;48.184;11.510;2022-09-17T10:52:13;95631.34;;;8.86;100.00
7662;BME280;30314;48.184;11.510;2022-09-17T10:55:06;95625.41;;;8.94;100.00
7662;BME280;30314;48.184;11.510;2022-09-17T10:57:59;95623.09;;;8.93;100.00
7662;BME280;30314;48.184;11.510;2022-09-17T11:00:37;95610.53;;;8.84;100.00
7662;BME280;30314;48.184;11.510;2022-09-17T11:03:34;95624.34;;;8.95;100.00
7662;BME280;30314;48.184;11.510;2022-09-17T11:06:36;95621.72;;;8.95;100.00
7662;BME280;30314;48.184;11.510;2022-09-17T11:09:16;95621.56;;;9.06;100.00
7662;BME280;30314;48.184;11.510;2022-09-17T11:11:58;95624.28;;;9.20;100.00
7662;BME280;30314;48.184;11.510;2022-09-17T11:14:40;95622.41;;;9.39;100.00
7662;BME280;30314;48.184;11.510;2022-09-17T11:17:26;95624.88;;;9.50;100.00
7662;BME280;30314;48.184;11.510;2022-09-17T11:20:02;95624.31;;;9.53;100.00
7662;BME280;30314;48.184;11.510;2022-09-17T11:22:41;95618.78;;;9.68;100.00
7662;BME280;30314;48.184;11.510;2022-09-17T11:25:31;95637.63;;;9.62;100.00
7662;BME280;30314;48.184;11.510;2022-09-17T11:28:10;95628.81;;;9.52;100.00
7662;BME280;30314;48.184;11.510;2022-09-17T11:30:52;95620.84;;;9.19;100.00
7662;BME280;30314;48.184;11.510;2022-09-17T11:33:46;95629.06;;;8.98;100.00
7662;BME280;30314;48.184;11.510;2022-09-17T11:36:21;95610.63;;;8.98;100.00
7662;BME280;30314;48.184;11.510;2022-09-17T11:38:52;95623.63;;;9.09;100.00
7662;BME280;30314;48.184;11.510;2022-09-17T11:41:27;95608.03;;;9.12;100.00
7662;BME280;30314;48.184;11.510;2022-09-17T11:44:06;95609.22;;;9.20;100.00
7662;BME280;30314;48.184;11.510;2022-09-17T11:46:40;95622.34;;;9.44;100.00
7662;BME280;30314;48.184;11.510;2022-09-17T11:49:17;95597.72;;;9.49;100.00
7662;BME280;30314;48.184;11.510;2022-09-17T11:51:52;95614.56;;;9.67;100.00
7662;BME280;30314;48.184;11.510;2022-09-17T11:54:24;95615.00;;;9.75;100.00
7662;BME280;30314;48.184;11.510;2022-09-17T11:57:05;95605.78;;;9.72;100.00
7662;BME280;30314;48.184;11.510;2022-09-17T11:59:40;95622.31;;;9.78;100.00
7662;BME280;30314;48.184;11.510;2022-09-17T12:02:18;95612.13;;;9.57;100.00
7662;BME280;30314;48.184;11.510;2022-09-17T12:04:53;95607.00;;;9.47;100.00
7662;BME280;30314;48.184;11.510;2022-09-17T12:07:31;95612.53;;;9.31;100.00
7662;BME280;30314;48.184;11.510;2022-09-17T12:10:17;95613.81;;;9.14;100.00
7662;BME280;30314;48.184;11.510;2022-09-17T12:12:54;95600.91;;;8.94;100.00
7662;BME280;30314;48.184;11.510;2022-09-17T12:15:25;95597.66;;;8.83;100.00
7662;BME280;30314;48.184;11.510;2022-09-17T12:18:15;95590.09;;;8.76;100.00
7662;BME280;30314;48.184;11.510;2022-09-17T12:21:02;95585.50;;;9.01;100.00
7662;BME280;30314;48.184;11.510;2022-09-17T12:23:36;95549.41;;;8.82;100.00
7662;BME280;30314;48.184;11.510;2022-09-17T12:26:15;95590.63;;;9.11;100.00
7662;BME280;30314;48.184;11.510;2022-09-17T12:28:55;95568.34;;;8.84;100.00
7662;BME280;30314;48.184;11.510;2022-09-17T12:31:31;95567.84;;;9.01;100.00
7662;BME280;30314;48.184;11.510;2022-09-17T12:34:17;95576.69;;;9.11;100.00
7662;BME280;30314;48.184;11.510;2022-09-17T12:36:54;95590.28;;;8.99;100.00
7662;BME280;30314;48.184;11.510;2022-09-17T12:39:51;95582.50;;;9.08;100.00
7662;BME280;30314;48.184;11.510;2022-09-17T12:42:32;95582.31;;;9.04;100.00
7662;BME280;30314;48.184;11.510;2022-09-17T12:45:25;95585.00;;;8.99;100.00
7662;BME280;30314;48.184;11.510;2022-09-17T12:48:21;95582.38;;;8.99;100.00
7662;BME280;30314;48.184;11.510;2022-09-17T12:50:59;95581.19;;;8.91;100.00
7662;BME280;30314;48.184;11.510;2022-09-17T12:53:30;95580.47;;;8.85;100.00
7662;BME280;30314;48.184;11.510;2022-09-17T12:56:08;95580.41;;;8.91;100.00
7662;BME280;30314;48.184;11.510;2022-09-17T12:58:49;95583.44;;;8.98;100.00
7662;BME280;30314;48.184;11.510;2022-09-17T13:01:27;95580.19;;;9.06;100.00
7662;BME280;30314;48.184;11.510;2022-09-17T13:04:09;95582.50;;;9.08;100.00
7662;BME280;30314;48.184;11.510;2022-09-17T13:07:05;95574.34;;;8.90;100.00
7662;BME280;30314;48.184;11.510;2022-09-17T13:09:55;95576.75;;;8.86;100.00
7662;BME280;30314;48.184;11.510;2022-09-17T13:12:38;95574.13;;;8.86;100.00
7662;BME280;30314;48.184;11.510;2022-09-17T13:18:22;95564.66;;;8.85;100.00
7662;BME280;30314;48.184;11.510;2022-09-17T13:21:01;95555.78;;;8.95;100.00
7662;BME280;30314;48.184;11.510;2022-09-17T13:23:33;95547.69;;;8.92;100.00
7662;BME280;30314;48.184;11.510;2022-09-17T13:26:02;95542.06;;;8.98;100.00
7662;BME280;30314;48.184;11.510;2022-09-17T13:28:37;95549.66;;;9.00;100.00
7662;BME280;30314;48.184;11.510;2022-09-17T13:31:12;95546.66;;;9.07;100.00
7662;BME280;30314;48.184;11.510;2022-09-17T13:33:55;95548.38;;;9.16;100.00
7662;BME280;30314;48.184;11.510;2022-09-17T13:36:44;95558.94;;;9.16;100.00